sensor_id;sensor_type;location;lat;lon;timestamp;pressure;altitude;pressure_sealevel;temperature;humidity
6532;BME280;3299;42.004;24.868;2023-04-25T00:01:03;97412.44;;;13.21;100.00
6532;BME280;3299;42.004;24.868;2023-04-25T00:03:30;97483.25;;;13.68;100.00
6532;BME280;3299;42.004;24.868;2023-04-25T00:05:55;97486.53;;;13.70;100.00
6532;BME280;3299;42.004;24.868;2023-04-25T00:08:22;97471.22;;;13.67;100.00
6532;BME280;3299;42.004;24.868;2023-04-25T00:10:47;97431.34;;;13.41;100.00
6532;BME280;3299;42.004;24.868;2023-04-25T00:13:14;97414.72;;;13.51;100.00
6532;BME280;3299;42.004;24.868;2023-04-25T00:15:42;97457.50;;;13.92;100.00
6532;BME280;3299;42.004;24.868;2023-04-25T00:18:08;97445.22;;;13.67;100.00
6532;BME280;3299;42.004;24.868;2023-04-25T00:20:35;97380.16;;;13.41;100.00
6532;BME280;3299;42.004;24.868;2023-04-25T00:23:00;97362.34;;;13.29;100.00
6532;BME280;3299;42.004;24.868;2023-04-25T00:25:26;97339.00;;;13.02;100.00
6532;BME280;3299;42.004;24.868;2023-04-25T00:27:51;97410.97;;;13.36;100.00
6532;BME280;3299;42.004;24.868;2023-04-25T00:30:17;97340.16;;;12.90;100.00
6532;BME280;3299;42.004;24.868;2023-04-25T00:32:42;97406.00;;;13.43;100.00
6532;BME280;3299;42.004;24.868;2023-04-25T00:35:08;97386.84;;;13.44;100.00
6532;BME280;3299;42.004;24.868;2023-04-25T00:37:34;97367.25;;;13.32;100.00
6532;BME280;3299;42.004;24.868;2023-04-25T00:40:00;97327.13;;;13.17;100.00
6532;BME280;3299;42.004;24.868;2023-04-25T00:42:25;97412.63;;;13.72;100.00
6532;BME280;3299;42.004;24.868;2023-04-25T00:44:52;97411.50;;;13.75;100.00
6532;BME280;3299;42.004;24.868;2023-04-25T00:47:18;97402.78;;;13.76;100.00
6532;BME280;3299;42.004;24.868;2023-04-25T00:49:43;97334.44;;;13.31;100.00
6532;BME280;3299;42.004;24.868;2023-04-25T00:52:09;97368.81;;;13.60;100.00
6532;BME280;3299;42.004;24.868;2023-04-25T00:54:35;97416.50;;;14.03;100.00
6532;BME280;3299;42.004;24.868;2023-04-25T00:57:01;97382.03;;;13.84;100.00
6532;BME280;3299;42.004;24.868;2023-04-25T00:59:28;97389.91;;;13.74;100.00
6532;BME280;3299;42.004;24.868;2023-04-25T01:01:56;97379.88;;;13.79;100.00
6532;BME280;3299;42.004;24.868;2023-04-25T01:04:21;97336.44;;;13.72;100.00
6532;BME280;3299;42.004;24.868;2023-04-25T01:06:47;97378.78;;;13.82;100.00
6532;BME280;3299;42.004;24.868;2023-04-25T01:09:13;97418.13;;;14.04;100.00
6532;BME280;3299;42.004;24.868;2023-04-25T01:11:38;97390.38;;;13.70;100.00
6532;BME280;3299;42.004;24.868;2023-04-25T01:14:05;97370.06;;;13.56;100.00
6532;BME280;3299;42.004;24.868;2023-04-25T01:16:31;97402.56;;;13.42;100.00
6532;BME280;3299;42.004;24.868;2023-04-25T01:18:57;97405.81;;;13.27;100.00
6532;BME280;3299;42.004;24.868;2023-04-25T01:21:22;97363.19;;;12.75;100.00
6532;BME280;3299;42.004;24.868;2023-04-25T01:23:48;97422.38;;;12.89;100.00
6532;BME280;3299;42.004;24.868;2023-04-25T01:26:13;97326.84;;;12.39;100.00
6532;BME280;3299;42.004;24.868;2023-04-25T01:28:39;97329.09;;;12.61;100.00
6532;BME280;3299;42.004;24.868;2023-04-25T01:31:08;97385.59;;;12.94;100.00
6532;BME280;3299;42.004;24.868;2023-04-25T01:33:34;97420.56;;;13.36;100.00
6532;BME280;3299;42.004;24.868;2023-04-25T01:35:59;97344.66;;;12.97;100.00
6532;BME280;3299;42.004;24.868;2023-04-25T01:38:25;97379.63;;;13.20;100.00
6532;BME280;3299;42.004;24.868;2023-04-25T01:40:51;97361.06;;;13.15;100.00
6532;BME280;3299;42.004;24.868;2023-04-25T01:43:17;97391.34;;;13.24;100.00
6532;BME280;3299;42.004;24.868;2023-04-25T01:45:42;97355.91;;;12.79;100.00
6532;BME280;3299;42.004;24.868;2023-04-25T01:48:10;97345.97;;;12.74;100.00
6532;BME280;3299;42.004;24.868;2023-04-25T01:50:37;97435.13;;;13.19;100.00
6532;BME280;3299;42.004;24.868;2023-04-25T01:53:04;97341.56;;;12.75;100.00
6532;BME280;3299;42.004;24.868;2023-04-25T01:55:29;97379.66;;;13.11;100.00
6532;BME280;3299;42.004;24.868;2023-04-25T01:57:55;97434.66;;;13.51;100.00
6532;BME280;3299;42.004;24.868;2023-04-25T02:00:20;97338.44;;;13.08;100.00
6532;BME280;3299;42.004;24.868;2023-04-25T02:02:46;97412.63;;;13.72;100.00
6532;BME280;3299;42.004;24.868;2023-04-25T02:05:11;97354.88;;;13.43;100.00
6532;BME280;3299;42.004;24.868;2023-04-25T02:07:36;97390.28;;;13.62;100.00
6532;BME280;3299;42.004;24.868;2023-04-25T02:10:03;97399.72;;;13.80;100.00
6532;BME280;3299;42.004;24.868;2023-04-25T02:12:28;97374.00;;;13.77;100.00
6532;BME280;3299;42.004;24.868;2023-04-25T02:14:54;97377.97;;;13.64;100.00
6532;BME280;3299;42.004;24.868;2023-04-25T02:17:19;97327.91;;;13.27;100.00
6532;BME280;3299;42.004;24.868;2023-04-25T02:19:47;97364.94;;;13.46;100.00
6532;BME280;3299;42.004;24.868;2023-04-25T02:22:12;97403.47;;;13.51;100.00
6532;BME280;3299;42.004;24.868;2023-04-25T02:24:38;97396.09;;;13.11;100.00
6532;BME280;3299;42.004;24.868;2023-04-25T02:27:03;97327.47;;;12.60;100.00
6532;BME280;3299;42.004;24.868;2023-04-25T02:29:29;97325.63;;;12.43;100.00
6532;BME280;3299;42.004;24.868;2023-04-25T02:31:55;97386.75;;;12.55;100.00
6532;BME280;3299;42.004;24.868;2023-04-25T02:34:20;97367.69;;;12.37;100.00
6532;BME280;3299;42.004;24.868;2023-04-25T02:36:46;97362.72;;;12.07;100.00
6532;BME280;3299;42.004;24.868;2023-04-25T02:39:11;97405.50;;;12.30;100.00
6532;BME280;3299;42.004;24.868;2023-04-25T02:41:37;97313.75;;;11.94;100.00
6532;BME280;3299;42.004;24.868;2023-04-25T02:44:02;97407.81;;;12.42;100.00
6532;BME280;3299;42.004;24.868;2023-04-25T02:46:28;97375.75;;;12.34;100.00
6532;BME280;3299;42.004;24.868;2023-04-25T02:48:53;97345.78;;;12.12;100.00
6532;BME280;3299;42.004;24.868;2023-04-25T02:51:18;97356.78;;;12.24;100.00
6532;BME280;3299;42.004;24.868;2023-04-25T02:53:44;97394.41;;;12.56;100.00
6532;BME280;3299;42.004;24.868;2023-04-25T02:56:09;97400.88;;;12.79;100.00
6532;BME280;3299;42.004;24.868;2023-04-25T02:58:34;97373.41;;;12.40;100.00
6532;BME280;3299;42.004;24.868;2023-04-25T03:01:00;97406.91;;;12.70;100.00
6532;BME280;3299;42.004;24.868;2023-04-25T03:03:25;97409.06;;;12.75;100.00
6532;BME280;3299;42.004;24.868;2023-04-25T03:05:51;97369.09;;;12.22;100.00
6532;BME280;3299;42.004;24.868;2023-04-25T03:08:17;97408.66;;;12.33;100.00
6532;BME280;3299;42.004;24.868;2023-04-25T03:10:43;97335.63;;;11.73;100.00
6532;BME280;3299;42.004;24.868;2023-04-25T03:13:09;97323.72;;;11.89;100.00
6532;BME280;3299;42.004;24.868;2023-04-25T03:15:35;97341.56;;;12.11;100.00
6532;BME280;3299;42.004;24.868;2023-04-25T03:18:01;97373.38;;;12.50;100.00
6532;BME280;3299;42.004;24.868;2023-04-25T03:20:29;97414.59;;;12.89;100.00
6532;BME280;3299;42.004;24.868;2023-04-25T03:22:55;97414.06;;;12.86;100.00
6532;BME280;3299;42.004;24.868;2023-04-25T03:25:21;97432.44;;;13.11;100.00
6532;BME280;3299;42.004;24.868;2023-04-25T03:27:46;97379.41;;;12.50;100.00
6532;BME280;3299;42.004;24.868;2023-04-25T03:30:12;97370.69;;;12.42;100.00
6532;BME280;3299;42.004;24.868;2023-04-25T03:32:37;97338.06;;;12.30;100.00
6532;BME280;3299;42.004;24.868;2023-04-25T03:35:03;97389.63;;;12.52;100.00
6532;BME280;3299;42.004;24.868;2023-04-25T03:37:28;97408.06;;;12.49;100.00
6532;BME280;3299;42.004;24.868;2023-04-25T03:39:54;97350.56;;;12.07;100.00
6532;BME280;3299;42.004;24.868;2023-04-25T03:42:19;97316.34;;;11.94;100.00
6532;BME280;3299;42.004;24.868;2023-04-25T03:44:48;97378.34;;;12.34;100.00
6532;BME280;3299;42.004;24.868;2023-04-25T03:47:13;97364.47;;;12.16;100.00
6532;BME280;3299;42.004;24.868;2023-04-25T03:49:38;97407.94;;;12.41;100.00
6532;BME280;3299;42.004;24.868;2023-04-25T03:52:07;97382.97;;;12.40;100.00
6532;BME280;3299;42.004;24.868;2023-04-25T03:54:32;97317.81;;;12.06;100.00
6532;BME280;3299;42.004;24.868;2023-04-25T03:56:58;97351.38;;;12.17;100.00
6532;BME280;3299;42.004;24.868;2023-04-25T03:59:23;97316.72;;;12.09;100.00
6532;BME280;3299;42.004;24.868;2023-04-25T04:01:50;97357.84;;;12.40;100.00
6532;BME280;3299;42.004;24.868;2023-04-25T04:04:15;97385.13;;;12.54;100.00
6532;BME280;3299;42.004;24.868;2023-04-25T04:06:41;97383.75;;;12.50;100.00
6532;BME280;3299;42.004;24.868;2023-04-25T04:09:07;97385.78;;;12.56;100.00
6532;BME280;3299;42.004;24.868;2023-04-25T04:11:36;97342.88;;;12.25;100.00
6532;BME280;3299;42.004;24.868;2023-04-25T04:14:04;97319.22;;;11.82;100.00
6532;BME280;3299;42.004;24.868;2023-04-25T04:16:30;97372.66;;;12.11;100.00
6532;BME280;3299;42.004;24.868;2023-04-25T04:18:56;97341.72;;;12.00;100.00
6532;BME280;3299;42.004;24.868;2023-04-25T04:21:21;97369.09;;;12.22;100.00
6532;BME280;3299;42.004;24.868;2023-04-25T04:23:46;97317.28;;;12.03;100.00
6532;BME280;3299;42.004;24.868;2023-04-25T04:26:13;97322.31;;;12.14;100.00
6532;BME280;3299;42.004;24.868;2023-04-25T04:28:40;97370.13;;;12.38;100.00
6532;BME280;3299;42.004;24.868;2023-04-25T04:31:05;97335.84;;;12.08;100.00
6532;BME280;3299;42.004;24.868;2023-04-25T04:33:32;97383.00;;;12.30;100.00
6532;BME280;3299;42.004;24.868;2023-04-25T04:35:58;97336.69;;;11.89;100.00
6532;BME280;3299;42.004;24.868;2023-04-25T04:38:24;97334.78;;;11.82;100.00
6532;BME280;3299;42.004;24.868;2023-04-25T04:40:50;97361.66;;;11.81;100.00
6532;BME280;3299;42.004;24.868;2023-04-25T04:43:15;97371.75;;;11.65;100.00
6532;BME280;3299;42.004;24.868;2023-04-25T04:45:42;97302.59;;;11.18;100.00
6532;BME280;3299;42.004;24.868;2023-04-25T04:48:08;97393.44;;;11.73;100.00
6532;BME280;3299;42.004;24.868;2023-04-25T04:50:34;97347.91;;;11.61;100.00
6532;BME280;3299;42.004;24.868;2023-04-25T04:53:01;97411.16;;;11.97;100.00
6532;BME280;3299;42.004;24.868;2023-04-25T04:55:27;97358.00;;;11.74;100.00
6532;BME280;3299;42.004;24.868;2023-04-25T04:57:52;97415.78;;;12.12;100.00
6532;BME280;3299;42.004;24.868;2023-04-25T05:00:18;97349.91;;;11.96;100.00
6532;BME280;3299;42.004;24.868;2023-04-25T05:02:43;97354.09;;;12.16;100.00
6532;BME280;3299;42.004;24.868;2023-04-25T05:05:08;97307.19;;;12.00;100.00
6532;BME280;3299;42.004;24.868;2023-04-25T05:07:34;97398.72;;;12.65;100.00
6532;BME280;3299;42.004;24.868;2023-04-25T05:10:00;97368.41;;;12.66;100.00
6532;BME280;3299;42.004;24.868;2023-04-25T05:12:25;97400.50;;;13.01;100.00
6532;BME280;3299;42.004;24.868;2023-04-25T05:14:50;97366.75;;;13.01;100.00
6532;BME280;3299;42.004;24.868;2023-04-25T05:17:16;97335.31;;;13.04;100.00
6532;BME280;3299;42.004;24.868;2023-04-25T05:19:41;97384.63;;;13.66;100.00
6532;BME280;3299;42.004;24.868;2023-04-25T05:22:07;97381.44;;;13.90;100.00
6532;BME280;3299;42.004;24.868;2023-04-25T05:24:32;97342.63;;;13.96;100.00
6532;BME280;3299;42.004;24.868;2023-04-25T05:26:58;97325.81;;;14.08;100.00
6532;BME280;3299;42.004;24.868;2023-04-25T05:29:23;97403.09;;;14.59;100.00
6532;BME280;3299;42.004;24.868;2023-04-25T05:31:49;97392.06;;;14.65;100.00
6532;BME280;3299;42.004;24.868;2023-04-25T05:34:14;97404.97;;;14.82;100.00
6532;BME280;3299;42.004;24.868;2023-04-25T05:36:41;97395.13;;;14.94;100.00
6532;BME280;3299;42.004;24.868;2023-04-25T05:39:07;97397.75;;;15.02;100.00
6532;BME280;3299;42.004;24.868;2023-04-25T05:41:34;97327.47;;;14.68;100.00
6532;BME280;3299;42.004;24.868;2023-04-25T05:43:59;97390.00;;;15.18;100.00
6532;BME280;3299;42.004;24.868;2023-04-25T05:46:24;97408.34;;;15.50;100.00
6532;BME280;3299;42.004;24.868;2023-04-25T05:48:50;97367.59;;;15.33;100.00
6532;BME280;3299;42.004;24.868;2023-04-25T05:51:15;97397.31;;;15.64;100.00
6532;BME280;3299;42.004;24.868;2023-04-25T05:53:41;97376.75;;;15.61;100.00
6532;BME280;3299;42.004;24.868;2023-04-25T05:56:08;97389.03;;;15.84;100.00
6532;BME280;3299;42.004;24.868;2023-04-25T05:58:33;97406.16;;;16.03;100.00
6532;BME280;3299;42.004;24.868;2023-04-25T06:00:59;97360.00;;;15.95;100.00
6532;BME280;3299;42.004;24.868;2023-04-25T06:03:24;97359.84;;;16.05;100.00
6532;BME280;3299;42.004;24.868;2023-04-25T06:05:49;97350.69;;;16.09;100.00
6532;BME280;3299;42.004;24.868;2023-04-25T06:08:15;97326.06;;;16.03;100.00
6532;BME280;3299;42.004;24.868;2023-04-25T06:10:41;97354.94;;;16.26;100.00
6532;BME280;3299;42.004;24.868;2023-04-25T06:13:06;97394.38;;;16.63;100.00
6532;BME280;3299;42.004;24.868;2023-04-25T06:15:31;97365.69;;;16.39;100.00
6532;BME280;3299;42.004;24.868;2023-04-25T06:17:58;97397.63;;;16.65;100.00
6532;BME280;3299;42.004;24.868;2023-04-25T06:20:23;97390.66;;;16.41;100.00
6532;BME280;3299;42.004;24.868;2023-04-25T06:22:50;97374.16;;;16.49;100.00
6532;BME280;3299;42.004;24.868;2023-04-25T06:25:15;97354.28;;;16.16;100.00
6532;BME280;3299;42.004;24.868;2023-04-25T06:27:41;97374.81;;;16.43;100.00
6532;BME280;3299;42.004;24.868;2023-04-25T06:30:07;97366.94;;;16.59;100.00
6532;BME280;3299;42.004;24.868;2023-04-25T06:32:32;97400.81;;;16.91;100.00
6532;BME280;3299;42.004;24.868;2023-04-25T06:34:59;97372.16;;;16.67;100.00
6532;BME280;3299;42.004;24.868;2023-04-25T06:37:25;97321.84;;;16.02;100.00
6532;BME280;3299;42.004;24.868;2023-04-25T06:39:50;97397.97;;;16.38;100.00
6532;BME280;3299;42.004;24.868;2023-04-25T06:42:16;97368.78;;;16.18;100.00
6532;BME280;3299;42.004;24.868;2023-04-25T06:44:41;97340.59;;;15.98;100.00
6532;BME280;3299;42.004;24.868;2023-04-25T06:47:06;97313.84;;;15.48;100.00
6532;BME280;3299;42.004;24.868;2023-04-25T06:49:32;97310.59;;;15.46;100.00
6532;BME280;3299;42.004;24.868;2023-04-25T06:51:57;97392.13;;;16.12;100.00
6532;BME280;3299;42.004;24.868;2023-04-25T06:54:23;97316.63;;;15.86;100.00
6532;BME280;3299;42.004;24.868;2023-04-25T06:56:50;97363.41;;;16.12;100.00
6532;BME280;3299;42.004;24.868;2023-04-25T06:59:15;97397.28;;;16.60;100.00
6532;BME280;3299;42.004;24.868;2023-04-25T07:01:40;97321.59;;;16.36;100.00
6532;BME280;3299;42.004;24.868;2023-04-25T07:04:06;97317.06;;;16.30;100.00
6532;BME280;3299;42.004;24.868;2023-04-25T07:06:32;97389.41;;;16.84;100.00
6532;BME280;3299;42.004;24.868;2023-04-25T07:08:57;97313.31;;;16.40;100.00
6532;BME280;3299;42.004;24.868;2023-04-25T07:11:22;97319.19;;;16.34;100.00
6532;BME280;3299;42.004;24.868;2023-04-25T07:13:48;97330.84;;;16.62;100.00
6532;BME280;3299;42.004;24.868;2023-04-25T07:16:13;97356.13;;;16.70;100.00
6532;BME280;3299;42.004;24.868;2023-04-25T07:18:39;97330.91;;;16.54;100.00
6532;BME280;3299;42.004;24.868;2023-04-25T07:21:04;97315.25;;;16.38;100.00
6532;BME280;3299;42.004;24.868;2023-04-25T07:23:30;97389.25;;;16.77;100.00
6532;BME280;3299;42.004;24.868;2023-04-25T07:25:55;97396.06;;;16.86;100.00
6532;BME280;3299;42.004;24.868;2023-04-25T07:28:21;97360.63;;;16.92;100.00
6532;BME280;3299;42.004;24.868;2023-04-25T07:30:47;97341.13;;;16.64;100.00
6532;BME280;3299;42.004;24.868;2023-04-25T07:33:12;97383.50;;;16.90;100.00
6532;BME280;3299;42.004;24.868;2023-04-25T07:35:37;97392.19;;;17.21;100.00
6532;BME280;3299;42.004;24.868;2023-04-25T07:38:03;97306.06;;;16.97;100.00
6532;BME280;3299;42.004;24.868;2023-04-25T07:40:28;97324.47;;;17.34;100.00
6532;BME280;3299;42.004;24.868;2023-04-25T07:42:54;97346.72;;;17.60;100.00
6532;BME280;3299;42.004;24.868;2023-04-25T07:45:19;97287.31;;;17.46;100.00
6532;BME280;3299;42.004;24.868;2023-04-25T07:47:45;97349.56;;;17.96;100.00
6532;BME280;3299;42.004;24.868;2023-04-25T07:50:10;97342.59;;;17.88;100.00
6532;BME280;3299;42.004;24.868;2023-04-25T07:52:36;97385.16;;;18.19;100.00
6532;BME280;3299;42.004;24.868;2023-04-25T07:55:01;97377.97;;;18.21;100.00
6532;BME280;3299;42.004;24.868;2023-04-25T07:57:27;97382.63;;;18.34;100.00
6532;BME280;3299;42.004;24.868;2023-04-25T07:59:52;97364.34;;;18.26;100.00
6532;BME280;3299;42.004;24.868;2023-04-25T08:02:17;97362.72;;;18.25;100.00
6532;BME280;3299;42.004;24.868;2023-04-25T08:04:43;97309.13;;;17.98;100.00
6532;BME280;3299;42.004;24.868;2023-04-25T08:07:08;97324.03;;;18.12;100.00
6532;BME280;3299;42.004;24.868;2023-04-25T08:09:34;97313.03;;;17.80;100.00
6532;BME280;3299;42.004;24.868;2023-04-25T08:12:01;97353.91;;;17.81;100.00
6532;BME280;3299;42.004;24.868;2023-04-25T08:14:28;97344.63;;;17.56;100.00
6532;BME280;3299;42.004;24.868;2023-04-25T08:16:56;97376.88;;;17.71;100.00
6532;BME280;3299;42.004;24.868;2023-04-25T08:19:21;97382.72;;;17.58;100.00
6532;BME280;3299;42.004;24.868;2023-04-25T08:21:47;97389.78;;;17.50;100.00
6532;BME280;3299;42.004;24.868;2023-04-25T08:24:12;97321.75;;;16.97;100.00
6532;BME280;3299;42.004;24.868;2023-04-25T08:26:38;97388.59;;;17.22;100.00
6532;BME280;3299;42.004;24.868;2023-04-25T08:29:04;97385.38;;;17.12;100.00
6532;BME280;3299;42.004;24.868;2023-04-25T08:31:30;97388.34;;;17.01;100.00
6532;BME280;3299;42.004;24.868;2023-04-25T08:33:56;97347.38;;;16.55;100.00
6532;BME280;3299;42.004;24.868;2023-04-25T08:36:21;97367.72;;;16.67;100.00
6532;BME280;3299;42.004;24.868;2023-04-25T08:38:46;97340.47;;;16.70;100.00
6532;BME280;3299;42.004;24.868;2023-04-25T08:41:13;97375.00;;;16.88;100.00
6532;BME280;3299;42.004;24.868;2023-04-25T08:43:40;97336.75;;;16.64;100.00
6532;BME280;3299;42.004;24.868;2023-04-25T08:46:07;97361.53;;;16.68;100.00
6532;BME280;3299;42.004;24.868;2023-04-25T08:48:33;97303.69;;;16.33;100.00
6532;BME280;3299;42.004;24.868;2023-04-25T08:51:02;97305.63;;;16.47;100.00
6532;BME280;3299;42.004;24.868;2023-04-25T08:53:32;97337.38;;;16.66;100.00
6532;BME280;3299;42.004;24.868;2023-04-25T08:56:00;97302.53;;;16.43;100.00
6532;BME280;3299;42.004;24.868;2023-04-25T08:58:30;97318.16;;;16.51;100.00
6532;BME280;3299;42.004;24.868;2023-04-25T09:00:57;97314.75;;;16.35;100.00
6532;BME280;3299;42.004;24.868;2023-04-25T09:03:22;97354.06;;;16.49;100.00
6532;BME280;3299;42.004;24.868;2023-04-25T09:05:47;97336.63;;;16.42;100.00
6532;BME280;3299;42.004;24.868;2023-04-25T09:08:13;97397.13;;;16.69;100.00
6532;BME280;3299;42.004;24.868;2023-04-25T09:10:40;97326.38;;;16.24;100.00
6532;BME280;3299;42.004;24.868;2023-04-25T09:15:47;97381.31;;;16.31;100.00
6532;BME280;3299;42.004;24.868;2023-04-25T09:18:13;97377.28;;;16.12;100.00
6532;BME280;3299;42.004;24.868;2023-04-25T09:20:42;97392.78;;;16.06;100.00
6532;BME280;3299;42.004;24.868;2023-04-25T09:23:08;97353.47;;;15.75;100.00
6532;BME280;3299;42.004;24.868;2023-04-25T09:25:37;97319.72;;;15.34;100.00
6532;BME280;3299;42.004;24.868;2023-04-25T09:28:06;97349.84;;;15.44;100.00
6532;BME280;3299;42.004;24.868;2023-04-25T09:30:35;97350.38;;;15.56;100.00
6532;BME280;3299;42.004;24.868;2023-04-25T09:33:08;97391.13;;;15.81;100.00
6532;BME280;3299;42.004;24.868;2023-04-25T09:35:40;97319.09;;;15.64;100.00
6532;BME280;3299;42.004;24.868;2023-04-25T09:38:12;97287.13;;;15.54;100.00
6532;BME280;3299;42.004;24.868;2023-04-25T09:40:42;97357.56;;;15.94;100.00
6532;BME280;3299;42.004;24.868;2023-04-25T09:43:26;97359.16;;;16.27;100.00
6532;BME280;3299;42.004;24.868;2023-04-25T09:45:53;97304.88;;;16.06;100.00
6532;BME280;3299;42.004;24.868;2023-04-25T09:48:22;97328.78;;;16.42;100.00
6532;BME280;3299;42.004;24.868;2023-04-25T09:53:40;97363.59;;;17.19;100.00
6532;BME280;3299;42.004;24.868;2023-04-25T09:56:08;97348.56;;;17.21;100.00
6532;BME280;3299;42.004;24.868;2023-04-25T09:58:35;97373.56;;;17.54;100.00
6532;BME280;3299;42.004;24.868;2023-04-25T10:01:05;97298.41;;;17.18;100.00
6532;BME280;3299;42.004;24.868;2023-04-25T10:03:34;97329.03;;;17.40;100.00
6532;BME280;3299;42.004;24.868;2023-04-25T10:06:01;97335.09;;;17.63;100.00
6532;BME280;3299;42.004;24.868;2023-04-25T10:08:32;97298.47;;;17.40;100.00
6532;BME280;3299;42.004;24.868;2023-04-25T10:11:00;97307.13;;;17.41;100.00
6532;BME280;3299;42.004;24.868;2023-04-25T10:13:28;97359.47;;;17.63;100.00
6532;BME280;3299;42.004;24.868;2023-04-25T10:15:55;97349.69;;;17.57;100.00
6532;BME280;3299;42.004;24.868;2023-04-25T10:18:24;97343.41;;;17.44;100.00
6532;BME280;3299;42.004;24.868;2023-04-25T10:20:49;97328.44;;;16.99;100.00
6532;BME280;3299;42.004;24.868;2023-04-25T10:23:15;97258.09;;;16.59;100.00
6532;BME280;3299;42.004;24.868;2023-04-25T10:25:42;97264.75;;;16.62;100.00
6532;BME280;3299;42.004;24.868;2023-04-25T10:28:08;97326.31;;;16.95;100.00
6532;BME280;3299;42.004;24.868;2023-04-25T10:30:33;97307.34;;;17.01;100.00
6532;BME280;3299;42.004;24.868;2023-04-25T10:32:59;97287.53;;;16.84;100.00
6532;BME280;3299;42.004;24.868;2023-04-25T10:35:29;97245.81;;;16.60;100.00
6532;BME280;3299;42.004;24.868;2023-04-25T10:38:11;97279.19;;;16.80;100.00
6532;BME280;3299;42.004;24.868;2023-04-25T10:40:38;97219.50;;;16.39;100.00
6532;BME280;3299;42.004;24.868;2023-04-25T10:43:35;97288.06;;;16.71;100.00
6532;BME280;3299;42.004;24.868;2023-04-25T10:46:03;97232.84;;;16.36;100.00
6532;BME280;3299;42.004;24.868;2023-04-25T10:48:37;97220.22;;;16.09;100.00
6532;BME280;3299;42.004;24.868;2023-04-25T10:51:16;97210.34;;;15.88;100.00
6532;BME280;3299;42.004;24.868;2023-04-25T10:53:46;97220.22;;;16.01;100.00
6532;BME280;3299;42.004;24.868;2023-04-25T10:56:22;97277.16;;;16.68;100.00
6532;BME280;3299;42.004;24.868;2023-04-25T10:58:48;97194.63;;;16.51;100.00
6532;BME280;3299;42.004;24.868;2023-04-25T11:01:21;97235.22;;;17.14;100.00
6532;BME280;3299;42.004;24.868;2023-04-25T11:03:57;97226.63;;;17.51;100.00
6532;BME280;3299;42.004;24.868;2023-04-25T11:06:29;97255.63;;;18.01;100.00
6532;BME280;3299;42.004;24.868;2023-04-25T11:08:56;97219.03;;;18.07;100.00
6532;BME280;3299;42.004;24.868;2023-04-25T11:11:22;97226.00;;;18.15;100.00
6532;BME280;3299;42.004;24.868;2023-04-25T11:13:48;97241.38;;;18.47;100.00
6532;BME280;3299;42.004;24.868;2023-04-25T11:16:15;97167.88;;;18.05;100.00
6532;BME280;3299;42.004;24.868;2023-04-25T11:18:44;97159.13;;;17.98;100.00
6532;BME280;3299;42.004;24.868;2023-04-25T11:21:10;97184.28;;;18.13;100.00
6532;BME280;3299;42.004;24.868;2023-04-25T11:23:35;97150.38;;;17.91;100.00
6532;BME280;3299;42.004;24.868;2023-04-25T11:26:02;97189.72;;;18.41;100.00
6532;BME280;3299;42.004;24.868;2023-04-25T11:28:28;97153.69;;;18.28;100.00
6532;BME280;3299;42.004;24.868;2023-04-25T11:30:53;97216.94;;;19.11;100.00
6532;BME280;3299;42.004;24.868;2023-04-25T11:33:23;97204.44;;;19.34;100.00
6532;BME280;3299;42.004;24.868;2023-04-25T11:35:49;97186.00;;;19.06;100.00
6532;BME280;3299;42.004;24.868;2023-04-25T11:38:15;97146.44;;;18.80;100.00
6532;BME280;3299;42.004;24.868;2023-04-25T11:40:40;97182.94;;;19.03;100.00
6532;BME280;3299;42.004;24.868;2023-04-25T11:43:06;97215.09;;;19.11;100.00
6532;BME280;3299;42.004;24.868;2023-04-25T11:45:32;97139.38;;;18.81;100.00
6532;BME280;3299;42.004;24.868;2023-04-25T11:47:57;97126.28;;;19.02;100.00
6532;BME280;3299;42.004;24.868;2023-04-25T11:50:23;97205.94;;;19.43;100.00
6532;BME280;3299;42.004;24.868;2023-04-25T11:52:48;97156.03;;;19.36;100.00
6532;BME280;3299;42.004;24.868;2023-04-25T11:55:18;97140.56;;;19.20;100.00
6532;BME280;3299;42.004;24.868;2023-04-25T11:57:46;97123.91;;;19.07;100.00
6532;BME280;3299;42.004;24.868;2023-04-25T12:00:18;97156.91;;;19.43;100.00
6532;BME280;3299;42.004;24.868;2023-04-25T12:02:54;97143.19;;;19.69;100.00
6532;BME280;3299;42.004;24.868;2023-04-25T12:05:23;97147.69;;;19.81;100.00
6532;BME280;3299;42.004;24.868;2023-04-25T12:07:48;97172.19;;;19.95;100.00
6532;BME280;3299;42.004;24.868;2023-04-25T12:10:16;97183.72;;;19.94;100.00
6532;BME280;3299;42.004;24.868;2023-04-25T12:12:42;97170.28;;;19.76;100.00
6532;BME280;3299;42.004;24.868;2023-04-25T12:15:16;97168.19;;;19.71;100.00
6532;BME280;3299;42.004;24.868;2023-04-25T12:17:45;97154.09;;;19.45;100.00
6532;BME280;3299;42.004;24.868;2023-04-25T12:20:19;97092.19;;;19.02;100.00
6532;BME280;3299;42.004;24.868;2023-04-25T12:22:47;97077.31;;;19.30;100.00
6532;BME280;3299;42.004;24.868;2023-04-25T12:25:37;97120.34;;;20.03;100.00
6532;BME280;3299;42.004;24.868;2023-04-25T12:31:06;97158.72;;;20.38;100.00
6532;BME280;3299;42.004;24.868;2023-04-25T12:33:37;97088.56;;;19.92;100.00
6532;BME280;3299;42.004;24.868;2023-04-25T12:36:05;97161.41;;;20.11;100.00
6532;BME280;3299;42.004;24.868;2023-04-25T12:38:39;97089.38;;;19.58;100.00
6532;BME280;3299;42.004;24.868;2023-04-25T12:41:06;97127.63;;;19.74;100.00
6532;BME280;3299;42.004;24.868;2023-04-25T12:43:31;97127.31;;;19.56;100.00
6532;BME280;3299;42.004;24.868;2023-04-25T12:45:57;97139.22;;;19.52;100.00
6532;BME280;3299;42.004;24.868;2023-04-25T12:48:23;97094.50;;;19.39;100.00
6532;BME280;3299;42.004;24.868;2023-04-25T12:50:51;97097.56;;;19.42;80.38
6532;BME280;3299;42.004;24.868;2023-04-25T12:53:20;97090.09;;;19.73;81.89
6532;BME280;3299;42.004;24.868;2023-04-25T12:55:46;97171.97;;;20.71;72.16
6532;BME280;3299;42.004;24.868;2023-04-25T12:58:16;97106.91;;;20.26;63.42
6532;BME280;3299;42.004;24.868;2023-04-25T13:00:42;97107.78;;;20.33;65.61
6532;BME280;3299;42.004;24.868;2023-04-25T13:03:08;97080.66;;;20.26;66.58
6532;BME280;3299;42.004;24.868;2023-04-25T13:05:34;97152.44;;;20.93;64.13